Time;durP1;ratioP1;P1;durP2;ratioP2;P2;SDS_P1;SDS_P2;PMS_P1;PMS_P2;Temp;Humidity;BMP_temperature;BMP_pressure;BME280_temperature;BME280_humidity;BME280_pressure;Samples;Min_cycle;Max_cycle;Signal;HPM_P1;HPM_P2
2024/04/01 00:00:22;;;;;;;13.60;6.38;;;15.50;99.90;;;;;;10429491;28;20539;-57
2024/04/01 00:05:24;;;;;;;17.20;7.90;;;15.60;99.90;;;;;;10445267;28;20048;-55
2024/04/01 00:10:26;;;;;;;20.33;9.38;;;15.70;99.90;;;;;;10440124;28;20048;-57
2024/04/01 00:15:32;;;;;;;17.33;9.15;;;15.50;99.90;;;;;;10441860;28;20580;-57
2024/04/01 00:20:42;;;;;;;19.83;8.07;;;15.50;99.90;;;;;;10444123;28;20045;-56
2024/04/01 00:25:44;;;;;;;18.05;8.68;;;15.50;99.90;;;;;;10450805;28;20053;-55
2024/04/01 00:30:49;;;;;;;14.23;7.10;;;15.50;99.90;;;;;;10419952;28;20076;-57
2024/04/01 00:35:51;;;;;;;9.88;5.25;;;15.40;99.90;;;;;;10442615;28;20101;-57
2024/04/01 00:40:55;;;;;;;14.98;6.75;;;15.80;99.90;;;;;;10430411;28;20049;-56
2024/04/01 00:45:59;;;;;;;17.23;7.90;;;15.70;99.90;;;;;;10431716;28;20229;-56
2024/04/01 00:51:02;;;;;;;17.80;6.43;;;15.50;99.90;;;;;;10439059;28;20056;-57
2024/04/01 00:56:07;;;;;;;;;;;15.30;99.90;;;;;;10436862;28;20045;-55
2024/04/01 01:01:12;;;;;;;11.18;5.82;;;15.20;99.90;;;;;;10428821;28;19924;-55
2024/04/01 01:06:18;;;;;;;16.73;7.32;;;15.00;99.90;;;;;;10435645;28;20444;-57
2024/04/01 01:11:20;;;;;;;14.65;7.20;;;15.30;99.90;;;;;;10433511;28;20052;-58
2024/04/01 01:16:24;;;;;;;19.98;8.13;;;15.10;99.90;;;;;;10421568;28;20061;-57
2024/04/01 01:21:29;;;;;;;14.70;8.10;;;15.10;99.90;;;;;;10448892;28;20079;-56
2024/04/01 01:26:32;;;;;;;17.75;8.77;;;15.10;99.90;;;;;;10437216;28;20053;-55
2024/04/01 01:31:39;;;;;;;16.50;8.38;;;14.90;99.90;;;;;;10427560;28;20501;-57
2024/04/01 01:36:41;;;;;;;15.95;8.68;;;15.10;99.90;;;;;;10444538;28;20088;-55
2024/04/01 01:41:44;;;;;;;17.17;7.82;;;15.30;99.90;;;;;;10441239;28;20473;-57
2024/04/01 01:46:47;;;;;;;14.77;8.13;;;15.20;99.90;;;;;;10428084;28;20043;-57
2024/04/01 01:51:49;;;;;;;16.17;8.60;;;15.10;99.90;;;;;;10426495;28;20099;-55
2024/04/01 01:56:54;;;;;;;15.85;8.20;;;15.00;99.90;;;;;;10444389;28;20053;-57
2024/04/01 02:01:59;;;;;;;15.20;7.85;;;14.90;99.90;;;;;;10453093;28;20068;-55
2024/04/01 02:07:05;;;;;;;15.52;7.93;;;14.90;99.90;;;;;;10438605;28;20141;-56
2024/04/01 02:12:08;;;;;;;17.00;7.15;;;14.90;99.90;;;;;;10451004;28;20045;-56
2024/04/01 02:17:13;;;;;;;13.68;7.25;;;14.90;99.90;;;;;;10464496;28;20041;-55
2024/04/01 02:22:22;;;;;;;14.05;6.82;;;14.90;99.90;;;;;;10428632;28;20053;-56
2024/04/01 02:27:25;;;;;;;15.50;6.28;;;14.90;99.90;;;;;;10436153;28;20428;-54
2024/04/01 02:32:27;;;;;;;13.55;7.05;;;14.80;99.90;;;;;;10434870;28;20729;-55
2024/04/01 02:37:29;;;;;;;14.43;5.10;;;14.80;99.90;;;;;;10451483;28;20340;-54
2024/04/01 02:42:34;;;;;;;9.15;4.90;;;15.30;99.90;;;;;;10442063;28;20060;-56
2024/04/01 02:47:38;;;;;;;10.75;5.07;;;15.50;99.90;;;;;;10428367;28;20098;-54
2024/04/01 02:52:40;;;;;;;9.38;4.75;;;15.30;99.90;;;;;;10437800;28;20041;-54
2024/04/01 02:57:49;;;;;;;13.27;5.82;;;15.20;99.90;;;;;;10444956;28;20404;-54
2024/04/01 03:02:54;;;;;;;7.88;4.22;;;14.90;99.90;;;;;;10436971;28;20065;-56
2024/04/01 03:07:58;;;;;;;5.95;3.55;;;15.00;99.90;;;;;;10432543;28;20100;-55
2024/04/01 03:13:05;;;;;;;8.05;4.50;;;15.10;99.90;;;;;;10443542;28;20061;-55
2024/04/01 03:18:07;;;;;;;8.63;4.47;;;15.00;99.90;;;;;;10433969;28;20033;-56
2024/04/01 03:23:13;;;;;;;7.57;4.45;;;14.90;99.90;;;;;;10427186;28;20049;-57
2024/04/01 03:28:18;;;;;;;7.35;4.60;;;14.80;99.90;;;;;;10451312;28;20048;-58
2024/04/01 03:33:23;;;;;;;10.02;4.35;;;15.30;99.90;;;;;;10459220;28;20427;-58
2024/04/01 03:38:25;;;;;;;5.07;3.08;;;15.30;99.90;;;;;;10456034;28;20492;-56
2024/04/01 03:43:30;;;;;;;5.93;4.07;;;14.80;99.90;;;;;;10452409;28;20045;-56
2024/04/01 03:48:34;;;;;;;5.50;3.65;;;14.50;99.90;;;;;;10456716;28;20533;-56
2024/04/01 03:53:36;;;;;;;7.28;3.78;;;14.60;99.90;;;;;;10455769;28;20044;-56
2024/04/01 03:58:46;;;;;;;6.23;4.07;;;14.50;99.90;;;;;;10459452;28;20107;-56
2024/04/01 04:03:50;;;;;;;6.43;3.70;;;14.80;99.90;;;;;;10455815;28;20067;-53
2024/04/01 04:08:53;;;;;;;8.15;3.58;;;15.30;99.90;;;;;;10456831;28;20135;-57
2024/04/01 04:14:02;;;;;;;4.05;3.17;;;14.80;99.90;;;;;;10453453;28;20048;-53
2024/04/01 04:19:08;;;;;;;6.13;3.83;;;14.50;99.90;;;;;;10458570;28;20048;-54
2024/04/01 04:24:12;;;;;;;5.38;3.58;;;14.50;99.90;;;;;;10460935;28;20040;-54
2024/04/01 04:29:15;;;;;;;6.15;4.00;;;14.30;99.90;;;;;;10458736;28;20060;-53
2024/04/01 04:34:17;;;;;;;7.22;3.17;;;14.40;99.90;;;;;;10462186;28;20052;-55
2024/04/01 04:39:24;;;;;;;6.33;3.50;;;14.80;99.90;;;;;;10457305;28;20451;-55
2024/04/01 04:44:27;;;;;;;6.35;4.75;;;13.50;99.90;;;;;;10459241;28;20072;-53
2024/04/01 04:49:29;;;;;;;10.70;6.65;;;12.40;99.90;;;;;;10462631;28;20447;-54
2024/04/01 04:54:31;;;;;;;7.50;5.50;;;11.90;99.90;;;;;;10464947;28;20056;-54
2024/04/01 04:59:35;;;;;;;7.82;6.03;;;11.50;99.90;;;;;;10464010;28;20041;-54
2024/04/01 05:04:37;;;;;;;7.50;5.60;;;11.70;99.90;;;;;;10462286;28;20080;-56
2024/04/01 05:09:39;;;;;;;9.70;5.83;;;11.80;99.90;;;;;;10452505;28;20045;-56
2024/04/01 05:14:47;;;;;;;7.17;4.80;;;11.60;99.90;;;;;;10466235;28;20106;-58
2024/04/01 05:19:50;;;;;;;10.02;5.75;;;12.20;99.90;;;;;;10460235;28;20489;-55
2024/04/01 05:24:52;;;;;;;11.60;5.33;;;12.20;99.90;;;;;;10464812;28;20052;-56
2024/04/01 05:30:05;;;;;;;6.70;5.13;;;12.30;99.90;;;;;;10431527;28;20045;-56
2024/04/01 05:35:16;;;;;;;10.32;4.63;;;12.90;99.90;;;;;;10447899;28;20548;-54
2024/04/01 05:40:21;;;;;;;5.13;4.55;;;13.20;99.90;;;;;;10433890;28;20466;-54
2024/04/01 05:45:25;;;;;;;7.75;4.05;;;13.70;99.90;;;;;;10427880;28;20050;-56
2024/04/01 05:50:27;;;;;;;4.97;3.60;;;14.10;99.90;;;;;;10456363;28;20045;-57
2024/04/01 05:55:29;;;;;;;7.28;4.45;;;14.00;99.90;;;;;;10440837;28;20045;-55
2024/04/01 06:00:34;;;;;;;6.60;5.07;;;13.50;99.90;;;;;;10446509;28;20045;-54
2024/04/01 06:05:36;;;;;;;6.85;5.97;;;12.80;99.90;;;;;;10463315;28;20048;-57
2024/04/01 06:10:38;;;;;;;7.80;6.00;;;12.50;99.90;;;;;;10461579;28;20045;-56
2024/04/01 06:15:42;;;;;;;10.15;6.25;;;12.30;99.90;;;;;;10466439;28;20044;-58
2024/04/01 06:20:44;;;;;;;10.30;7.45;;;11.60;99.90;;;;;;10452944;28;20048;-58
2024/04/01 06:25:46;;;;;;;7.03;5.53;;;11.40;99.90;;;;;;10454447;28;20464;-55
2024/04/01 06:30:49;;;;;;;13.20;6.78;;;11.70;99.90;;;;;;10458955;28;20040;-54
2024/04/01 06:35:59;;;;;;;6.15;5.53;;;12.10;99.90;;;;;;10455982;28;20122;-57
2024/04/01 06:41:01;;;;;;;4.82;4.25;;;12.30;99.90;;;;;;10456042;28;20449;-57
2024/04/01 06:46:07;;;;;;;6.40;4.60;;;13.80;99.90;;;;;;10452900;28;20041;-56
2024/04/01 06:51:10;;;;;;;4.10;3.63;;;14.60;99.90;;;;;;10449350;28;20041;-55
2024/04/01 06:56:12;;;;;;;6.20;4.00;;;15.20;99.90;;;;;;10445541;28;20067;-56
2024/04/01 07:01:17;;;;;;;5.53;3.58;;;15.20;99.90;;;;;;10457392;28;20048;-54
2024/04/01 07:06:19;;;;;;;3.42;3.10;;;15.50;99.90;;;;;;10438102;28;20067;-57
2024/04/01 07:11:23;;;;;;;5.17;3.67;;;15.30;99.90;;;;;;10413909;28;20048;-58
2024/04/01 07:16:27;;;;;;;5.30;3.97;;;15.30;99.90;;;;;;10422992;28;20107;-58
2024/04/01 07:21:31;;;;;;;5.32;3.45;;;15.50;99.90;;;;;;10424244;28;20859;-57
2024/04/01 07:26:33;;;;;;;8.30;3.88;;;15.40;99.90;;;;;;10427291;28;20057;-57
2024/04/01 07:31:38;;;;;;;6.30;3.17;;;15.60;99.90;;;;;;10422945;28;20497;-56
2024/04/01 07:36:42;;;;;;;3.40;3.10;;;15.50;99.90;;;;;;10435163;28;20061;-54
2024/04/01 07:41:46;;;;;;;3.47;2.95;;;15.70;99.90;;;;;;10432541;28;20382;-57
2024/04/01 07:46:51;;;;;;;7.47;3.20;;;15.60;99.90;;;;;;10419575;28;20086;-57
2024/04/01 07:51:53;;;;;;;4.72;3.65;;;15.70;99.90;;;;;;10432669;28;20060;-56
2024/04/01 07:57:02;;;;;;;6.00;2.60;;;15.70;99.90;;;;;;10425416;28;20364;-55
2024/04/01 08:02:08;;;;;;;6.47;3.90;;;15.30;99.90;;;;;;10428594;28;20566;-55
2024/04/01 08:07:10;;;;;;;6.05;3.08;;;15.30;99.90;;;;;;10455838;28;20048;-52
2024/04/01 08:12:13;;;;;;;9.03;3.03;;;15.20;99.90;;;;;;10437955;28;20049;-56
2024/04/01 08:17:19;;;;;;;4.22;2.75;;;15.40;99.90;;;;;;10419127;28;20495;-57
2024/04/01 08:22:24;;;;;;;5.10;2.17;;;15.20;99.90;;;;;;10422321;28;20753;-59
2024/04/01 08:27:26;;;;;;;2.45;1.45;;;15.50;99.90;;;;;;10445182;28;20464;-56
2024/04/01 08:32:29;;;;;;;7.60;2.40;;;15.30;99.90;;;;;;10445122;28;21376;-57
2024/04/01 08:37:38;;;;;;;4.78;2.53;;;14.90;99.90;;;;;;10450422;28;20534;-55
2024/04/01 08:42:44;;;;;;;8.43;2.75;;;15.10;99.90;;;;;;10437544;28;20408;-55
2024/04/01 08:47:51;;;;;;;3.17;2.28;;;14.90;99.90;;;;;;10438363;28;20072;-53
2024/04/01 08:52:58;;;;;;;9.30;2.63;;;15.00;99.90;;;;;;10440984;28;20119;-54
2024/04/01 08:58:00;;;;;;;11.65;2.17;;;14.70;99.90;;;;;;10432880;28;20071;-53
2024/04/01 09:03:05;;;;;;;13.40;2.05;;;15.70;99.90;;;;;;10432681;28;20076;-51
2024/04/01 09:08:08;;;;;;;8.48;2.08;;;14.60;99.90;;;;;;10427336;28;20500;-54
2024/04/01 09:13:16;;;;;;;8.60;1.70;;;14.60;99.90;;;;;;10438199;28;20083;-56
2024/04/01 09:18:20;;;;;;;11.98;1.98;;;14.90;99.90;;;;;;10451193;28;20447;-55
2024/04/01 09:23:22;;;;;;;7.68;1.70;;;15.20;99.90;;;;;;10462685;28;20056;-58
2024/04/01 09:28:27;;;;;;;12.17;1.60;;;14.70;99.90;;;;;;10447972;28;20047;-57
2024/04/01 09:33:33;;;;;;;10.65;1.83;;;15.10;99.90;;;;;;10432153;28;20080;-55
2024/04/01 09:38:37;;;;;;;10.35;2.15;;;13.10;99.90;;;;;;10410475;28;20222;-54
2024/04/01 09:43:43;;;;;;;17.15;2.20;;;12.40;99.90;;;;;;10421749;28;20067;-51
2024/04/01 09:48:49;;;;;;;15.65;2.25;;;12.10;99.90;;;;;;10426991;28;20567;-53
2024/04/01 09:53:51;;;;;;;19.67;2.15;;;12.00;99.90;;;;;;10423562;28;20056;-56
2024/04/01 09:59:31;;;;;;;6.17;1.43;;;11.80;99.90;;;;;;10409290;28;20126;-53
2024/04/01 10:05:02;;;;;;;9.05;1.55;;;12.00;99.90;;;;;;10406445;28;20059;-52
2024/04/01 10:10:53;;;;;;;9.63;2.17;;;12.40;99.90;;;;;;10427059;28;20049;-53
2024/04/01 10:16:22;;;;;;;15.73;2.33;;;11.90;99.90;;;;;;10426885;28;20745;-56
2024/04/01 10:22:05;;;;;;;16.83;3.08;;;11.90;99.90;;;;;;10426375;28;20060;-51
2024/04/01 10:27:41;;;;;;;9.82;1.50;;;12.70;99.90;;;;;;10421157;28;20522;-56
2024/04/01 10:33:34;;;;;;;7.80;1.15;;;12.30;99.90;;;;;;10429032;28;20656;-55
2024/04/01 10:39:10;;;;;;;12.43;1.77;;;12.00;99.90;;;;;;10420747;28;20207;-57
2024/04/01 10:44:44;;;;;;;10.32;1.42;;;12.30;99.90;;;;;;10423692;28;20060;-54
2024/04/01 10:50:12;;;;;;;10.35;2.03;;;11.90;99.90;;;;;;10427368;28;20044;-56
2024/04/01 10:55:40;;;;;;;13.25;1.58;;;12.00;99.90;;;;;;10428837;28;20139;-52
2024/04/01 11:01:12;;;;;;;5.32;0.90;;;12.10;99.90;;;;;;10416459;28;20076;-54
2024/04/01 11:06:40;;;;;;;13.10;1.92;;;12.20;99.90;;;;;;10427058;28;20357;-55
2024/04/01 11:11:55;;;;;;;5.97;1.58;;;12.50;99.90;;;;;;10415703;28;20056;-53
2024/04/01 11:17:01;;;;;;;9.15;1.67;;;12.30;99.90;;;;;;10423033;28;20855;-56
2024/04/01 11:22:05;;;;;;;12.23;2.15;;;12.60;99.90;;;;;;10425246;28;20136;-53
2024/04/01 11:27:45;;;;;;;10.30;2.25;;;12.40;99.90;;;;;;10421053;28;20075;-56
2024/04/01 11:32:52;;;;;;;7.72;2.20;;;12.40;99.90;;;;;;10425731;28;20512;-56
2024/04/01 11:38:16;;;;;;;8.80;2.38;;;12.30;99.90;;;;;;10418156;28;20534;-55
2024/04/01 11:43:23;;;;;;;6.40;1.65;;;12.40;99.90;;;;;;10418164;28;20053;-55
2024/04/01 11:48:25;;;;;;;13.52;2.47;;;12.40;99.90;;;;;;10427006;28;20052;-53
2024/04/01 11:53:38;;;;;;;13.93;2.13;;;12.40;99.90;;;;;;10424970;28;20064;-53
2024/04/01 11:58:50;;;;;;;;;;;12.40;99.90;;;;;;10428632;28;20059;-52
2024/04/01 12:03:52;;;;;;;10.07;2.42;;;12.40;99.90;;;;;;10432712;28;20454;-65
2024/04/01 12:08:59;;;;;;;13.37;1.63;;;12.60;99.90;;;;;;10435714;28;20125;-52
2024/04/01 12:14:05;;;;;;;10.07;1.60;;;12.80;99.90;;;;;;10432232;28;20214;-56
2024/04/01 12:19:07;;;;;;;8.10;1.60;;;13.00;99.90;;;;;;10435412;28;20417;-52
2024/04/01 12:24:11;;;;;;;8.27;1.70;;;12.90;99.90;;;;;;10431691;28;20734;-56
2024/04/01 12:29:16;;;;;;;10.40;1.98;;;13.40;99.90;;;;;;10433971;28;20677;-55
2024/04/01 12:34:18;;;;;;;6.70;1.58;;;13.10;99.90;;;;;;10432606;28;20052;-55
2024/04/01 12:39:22;;;;;;;7.95;1.70;;;13.30;99.90;;;;;;10432864;28;20041;-55
2024/04/01 12:44:25;;;;;;;8.20;1.90;;;13.60;99.90;;;;;;10436879;28;20732;-55
2024/04/01 12:49:32;;;;;;;5.38;1.80;;;13.60;99.90;;;;;;10426423;28;20060;-50
2024/04/01 12:54:58;;;;;;;11.57;1.73;;;14.00;99.90;;;;;;10436735;28;20044;-56
2024/04/01 13:00:05;;;;;;;2.97;1.52;;;14.40;99.90;;;;;;10433286;28;20056;-56
2024/04/01 13:05:18;;;;;;;5.78;1.50;;;14.60;99.90;;;;;;10430506;28;20051;-52
2024/04/01 13:10:26;;;;;;;6.60;1.52;;;14.40;99.90;;;;;;10425487;28;20503;-57
2024/04/01 13:15:37;;;;;;;6.55;2.92;;;14.60;99.90;;;;;;10431095;28;20060;-55
2024/04/01 13:20:50;;;;;;;7.32;2.95;;;14.90;99.90;;;;;;10429817;28;20433;-56
2024/04/01 13:26:03;;;;;;;6.05;2.90;;;15.30;99.90;;;;;;10427052;28;20057;-52
2024/04/01 13:31:22;;;;;;;6.10;2.53;;;15.60;99.90;;;;;;10427892;28;20044;-56
2024/04/01 13:36:32;;;;;;;7.40;3.60;;;16.00;99.90;;;;;;10428349;28;20060;-56
2024/04/01 13:41:49;;;;;;;5.97;3.00;;;16.20;99.90;;;;;;10425965;28;20098;-54
2024/04/01 13:47:08;;;;;;;8.27;2.40;;;16.00;99.90;;;;;;10420202;28;20794;-55
2024/04/01 13:52:22;;;;;;;9.02;2.67;;;15.90;99.90;;;;;;10422816;28;20895;-53
2024/04/01 13:57:41;;;;;;;3.78;2.00;;;16.00;99.90;;;;;;10424698;28;20106;-56
2024/04/01 14:02:52;;;;;;;4.90;2.30;;;16.60;99.90;;;;;;10418413;28;20111;-55
2024/04/01 14:08:02;;;;;;;4.03;2.35;;;16.40;99.90;;;;;;10429031;28;20527;-57
2024/04/01 14:13:20;;;;;;;7.75;2.10;;;16.30;99.90;;;;;;10422793;28;20048;-52
2024/04/01 14:18:40;;;;;;;2.25;1.20;;;16.00;99.90;;;;;;10419770;28;20057;-53
2024/04/01 14:23:44;;;;;;;6.32;1.40;;;17.00;99.90;;;;;;10427882;28;20496;-56
2024/04/01 14:28:47;;;;;;;4.93;1.33;;;17.10;99.90;;;;;;10425829;28;20048;-55
2024/04/01 14:33:51;;;;;;;4.43;1.75;;;17.40;99.90;;;;;;10427117;28;20060;-54
2024/04/01 14:38:53;;;;;;;4.32;1.15;;;17.80;99.90;;;;;;10426423;28;20144;-56
2024/04/01 14:43:56;;;;;;;2.60;1.05;;;18.60;99.90;;;;;;10420580;28;20106;-57
2024/04/01 14:49:07;;;;;;;2.90;0.80;;;18.30;99.30;;;;;;10423661;28;20057;-56
2024/04/01 14:54:10;;;;;;;3.63;1.05;;;18.40;99.90;;;;;;10423969;28;20104;-59
2024/04/01 14:59:12;;;;;;;3.47;1.08;;;19.30;98.50;;;;;;10425381;28;20063;-59
2024/04/01 15:04:16;;;;;;;5.32;0.95;;;19.00;97.40;;;;;;10425187;28;20059;-55
2024/04/01 15:09:19;;;;;;;4.75;0.90;;;18.20;99.90;;;;;;10428739;28;20057;-54
2024/04/01 15:14:25;;;;;;;3.28;0.68;;;18.70;98.80;;;;;;10428751;28;20428;-55
2024/04/01 15:19:31;;;;;;;3.33;0.90;;;19.80;98.90;;;;;;10423226;28;20044;-57
2024/04/01 15:24:35;;;;;;;5.80;1.40;;;20.10;96.40;;;;;;10426701;28;21087;-60
2024/04/01 15:29:39;;;;;;;4.60;1.20;;;19.90;96.70;;;;;;10434013;28;20037;-56
2024/04/01 15:34:44;;;;;;;2.97;0.95;;;19.90;97.90;;;;;;10414332;28;20049;-55
2024/04/01 15:39:48;;;;;;;2.22;0.75;;;20.30;99.90;;;;;;10420822;28;20696;-56
2024/04/01 15:44:51;;;;;;;3.60;0.95;;;20.50;99.90;;;;;;10422178;28;20080;-58
2024/04/01 15:49:55;;;;;;;4.25;1.20;;;21.00;99.90;;;;;;10425448;28;20332;-58
2024/04/01 15:54:58;;;;;;;7.07;1.02;;;21.20;97.90;;;;;;10420615;28;20075;-57
2024/04/01 16:00:00;;;;;;;5.40;0.93;;;21.30;99.90;;;;;;10417437;28;20598;-55
2024/04/01 16:05:05;;;;;;;8.45;1.02;;;19.70;97.40;;;;;;10421916;28;20052;-56
2024/04/01 16:10:09;;;;;;;5.82;1.08;;;19.60;98.40;;;;;;10419163;28;20060;-57
2024/04/01 16:15:13;;;;;;;3.50;1.05;;;19.10;98.40;;;;;;10421520;28;20052;-59
2024/04/01 16:20:18;;;;;;;3.60;0.93;;;20.50;96.90;;;;;;10410611;28;20571;-55
2024/04/01 16:25:21;;;;;;;4.22;0.82;;;20.50;98.70;;;;;;10414579;28;20107;-55
2024/04/01 16:30:27;;;;;;;6.65;1.00;;;20.20;96.80;;;;;;10413947;28;20049;-56
2024/04/01 16:35:31;;;;;;;7.22;1.60;;;18.60;99.50;;;;;;10415983;28;20231;-55
2024/04/01 16:40:34;;;;;;;2.95;0.90;;;19.00;99.00;;;;;;10422551;28;20071;-55
2024/04/01 16:45:36;;;;;;;4.82;1.05;;;19.90;99.90;;;;;;10425942;28;21075;-56
2024/04/01 16:50:43;;;;;;;4.70;1.33;;;20.30;96.70;;;;;;10433532;28;20790;-54
2024/04/01 16:55:46;;;;;;;4.55;1.00;;;20.10;97.50;;;;;;10424125;28;20094;-54
2024/04/01 17:00:48;;;;;;;5.40;1.20;;;20.10;99.90;;;;;;10427761;28;20067;-55
2024/04/01 17:05:51;;;;;;;;;;;20.00;98.20;;;;;;10428581;28;20238;-57
2024/04/01 17:10:57;;;;;;;3.95;1.05;;;19.00;99.90;;;;;;10429271;28;20790;-54
2024/04/01 17:16:00;;;;;;;7.85;1.05;;;19.00;99.90;;;;;;10425244;28;20045;-58
2024/04/01 17:21:08;;;;;;;5.00;1.08;;;19.10;99.90;;;;;;10434736;28;20503;-60
2024/04/01 17:26:12;;;;;;;6.80;1.55;;;17.70;99.90;;;;;;10432606;28;20061;-56
2024/04/01 17:31:15;;;;;;;9.55;1.23;;;17.80;99.90;;;;;;10431891;28;20056;-60
2024/04/01 17:36:19;;;;;;;5.47;1.30;;;17.40;99.90;;;;;;10423232;28;20053;-54
2024/04/01 17:41:21;;;;;;;5.95;1.27;;;18.30;99.90;;;;;;10427764;28;20105;-56
2024/04/01 17:46:23;;;;;;;6.25;1.02;;;18.20;99.90;;;;;;10417693;28;20909;-56
2024/04/01 17:51:28;;;;;;;7.75;1.05;;;18.00;99.90;;;;;;10427882;28;20065;-54
2024/04/01 17:56:31;;;;;;;4.93;1.08;;;18.80;99.90;;;;;;10427621;28;20512;-53
2024/04/01 18:01:33;;;;;;;7.38;1.15;;;18.50;99.90;;;;;;10420654;28;20045;-57
2024/04/01 18:06:42;;;;;;;10.82;1.50;;;17.70;99.90;;;;;;10421064;28;20061;-54
2024/04/01 18:11:44;;;;;;;5.88;1.10;;;17.20;99.90;;;;;;10424838;28;20703;-56
2024/04/01 18:16:46;;;;;;;7.57;1.63;;;16.40;99.90;;;;;;10422660;28;20533;-56
2024/04/01 18:21:50;;;;;;;5.75;1.23;;;16.60;99.90;;;;;;10417281;28;20056;-55
2024/04/01 18:26:52;;;;;;;2.45;0.93;;;15.80;99.90;;;;;;10415762;28;20175;-55
2024/04/01 18:31:56;;;;;;;10.70;1.38;;;16.70;99.90;;;;;;10417882;28;20053;-58
2024/04/01 18:37:02;;;;;;;9.40;1.52;;;16.30;99.90;;;;;;10418272;28;20700;-52
2024/04/01 18:42:09;;;;;;;6.95;1.60;;;16.00;99.90;;;;;;10422968;28;20049;-54
2024/04/01 18:47:11;;;;;;;4.13;0.93;;;14.10;99.90;;;;;;10420962;28;20060;-55
2024/04/01 18:52:24;;;;;;;10.98;1.80;;;14.70;99.90;;;;;;10425722;28;20048;-53
2024/04/01 18:57:26;;;;;;;;;;;13.90;99.90;;;;;;10423388;28;20052;-56
2024/04/01 19:02:28;;;;;;;10.15;2.55;;;13.80;99.90;;;;;;10428062;28;19982;-56
2024/04/01 19:07:32;;;;;;;8.43;1.67;;;14.50;99.90;;;;;;10427268;28;20064;-57
2024/04/01 19:12:37;;;;;;;3.67;1.52;;;14.20;99.90;;;;;;10426275;28;20041;-55
2024/04/01 19:17:39;;;;;;;6.20;1.50;;;13.90;99.90;;;;;;10419387;28;20052;-55
2024/04/01 19:22:43;;;;;;;;;;;14.20;99.90;;;;;;10422066;28;21015;-54
2024/04/01 19:27:45;;;;;;;5.53;1.15;;;15.20;99.90;;;;;;10421514;28;19931;-54
2024/04/01 19:32:51;;;;;;;6.73;1.20;;;13.60;99.90;;;;;;10423885;28;20040;-56
2024/04/01 19:37:56;;;;;;;7.50;1.60;;;13.70;99.90;;;;;;10420836;28;20535;-54
2024/04/01 19:43:00;;;;;;;3.92;1.17;;;12.80;99.90;;;;;;10420954;28;20087;-55
2024/04/01 19:48:03;;;;;;;10.50;2.83;;;13.10;99.90;;;;;;10416980;28;20041;-56
2024/04/01 19:53:14;;;;;;;7.72;2.88;;;13.60;99.90;;;;;;10422330;28;20500;-55
2024/04/01 19:58:16;;;;;;;12.45;2.63;;;14.40;99.90;;;;;;10422223;28;20190;-56
2024/04/01 20:03:23;;;;;;;8.45;1.70;;;15.10;99.90;;;;;;10421232;28;20641;-56
2024/04/01 20:08:29;;;;;;;7.65;1.58;;;15.00;99.90;;;;;;10428361;28;20451;-55
2024/04/01 20:13:31;;;;;;;8.05;1.42;;;15.40;99.90;;;;;;10418935;28;20059;-57
2024/04/01 20:18:37;;;;;;;5.13;0.95;;;13.60;99.90;;;;;;10434170;28;20082;-58
2024/04/01 20:23:40;;;;;;;12.55;1.23;;;14.50;99.90;;;;;;10433358;28;20056;-58
2024/04/01 20:28:45;;;;;;;3.95;0.80;;;14.60;99.90;;;;;;10429733;28;20486;-56
2024/04/01 20:33:51;;;;;;;7.28;1.17;;;15.90;99.90;;;;;;10433977;28;20107;-54
2024/04/01 20:38:57;;;;;;;6.47;1.00;;;16.20;99.90;;;;;;10435648;28;20079;-52
2024/04/01 20:44:01;;;;;;;6.22;1.30;;;15.80;99.90;;;;;;10432810;28;20131;-55
2024/04/01 20:49:05;;;;;;;9.32;1.10;;;16.80;99.90;;;;;;10434363;28;20432;-53
2024/04/01 20:54:20;;;;;;;3.80;1.17;;;16.40;99.90;;;;;;10434918;28;20055;-56
2024/04/01 20:59:24;;;;;;;4.05;0.88;;;14.50;99.90;;;;;;10445070;28;20424;-53
2024/04/01 21:04:31;;;;;;;1.88;0.82;;;13.80;99.90;;;;;;10456446;28;20789;-54
2024/04/01 21:09:35;;;;;;;8.15;1.20;;;14.50;99.90;;;;;;10443764;28;20138;-52
2024/04/01 21:14:37;;;;;;;4.35;1.10;;;13.40;99.90;;;;;;10452877;28;20037;-54
2024/04/01 21:19:39;;;;;;;4.77;1.40;;;13.30;99.90;;;;;;10449448;28;20056;-55
2024/04/01 21:24:44;;;;;;;2.17;1.23;;;12.80;99.90;;;;;;10434038;28;20052;-56
2024/04/01 21:29:49;;;;;;;3.03;1.38;;;13.00;99.90;;;;;;10430812;28;20061;-55
2024/04/01 21:34:51;;;;;;;4.40;1.73;;;13.20;99.90;;;;;;10429304;28;20091;-54
2024/04/01 21:39:57;;;;;;;4.65;1.60;;;15.00;99.90;;;;;;10430296;28;20664;-52
2024/04/01 21:44:59;;;;;;;5.78;1.55;;;13.60;99.90;;;;;;10437400;28;20075;-54
2024/04/01 21:50:02;;;;;;;6.83;3.63;;;13.30;99.90;;;;;;10432829;28;20064;-53
2024/04/01 21:55:06;;;;;;;4.57;2.28;;;15.30;99.90;;;;;;10424840;28;20068;-52
2024/04/01 22:00:16;;;;;;;5.47;2.22;;;14.80;99.90;;;;;;10433572;28;20052;-56
2024/04/01 22:05:18;;;;;;;2.53;1.40;;;15.10;99.90;;;;;;10432095;28;20133;-53
2024/04/01 22:10:23;;;;;;;1.97;1.00;;;13.20;99.90;;;;;;10440483;28;20040;-54
2024/04/01 22:15:25;;;;;;;3.00;1.40;;;12.40;99.90;;;;;;10433550;28;20045;-55
2024/04/01 22:20:30;;;;;;;3.90;2.00;;;14.00;99.90;;;;;;10428128;28;20044;-55
2024/04/01 22:25:33;;;;;;;6.47;1.65;;;14.90;99.90;;;;;;10440311;28;20064;-54
2024/04/01 22:30:35;;;;;;;2.25;1.75;;;14.20;99.90;;;;;;10431045;28;20045;-56
2024/04/01 22:35:45;;;;;;;4.53;2.88;;;13.00;99.90;;;;;;10421461;28;20056;-56
2024/04/01 22:40:51;;;;;;;3.53;2.10;;;12.70;99.90;;;;;;10423310;28;20037;-53
2024/04/01 22:45:52;;;;;;;4.20;2.40;;;12.70;99.90;;;;;;10421364;28;20057;-56
2024/04/01 22:50:54;;;;;;;4.47;2.30;;;12.40;99.90;;;;;;10435014;28;20080;-56
2024/04/01 22:56:00;;;;;;;3.17;2.10;;;11.80;99.90;;;;;;10422268;28;20049;-56
2024/04/01 23:01:02;;;;;;;3.03;1.77;;;11.90;99.90;;;;;;10420381;28;20045;-55
2024/04/01 23:06:04;;;;;;;6.60;1.40;;;12.60;99.90;;;;;;10418996;28;20118;-54
2024/04/01 23:11:08;;;;;;;2.53;1.70;;;12.30;99.90;;;;;;10419240;28;20091;-59
2024/04/01 23:16:10;;;;;;;3.20;1.38;;;11.90;99.90;;;;;;10424391;28;20056;-56
2024/04/01 23:21:13;;;;;;;3.08;1.60;;;13.10;99.90;;;;;;10438188;28;20190;-54
2024/04/01 23:26:20;;;;;;;2.70;1.30;;;11.70;99.90;;;;;;10425783;28;20059;-55
2024/04/01 23:31:22;;;;;;;7.40;1.80;;;11.90;99.90;;;;;;10426669;28;20049;-56
2024/04/01 23:36:27;;;;;;;4.30;1.53;;;12.10;99.90;;;;;;10432724;28;20144;-57
2024/04/01 23:41:32;;;;;;;5.25;1.65;;;12.10;99.90;;;;;;10424280;28;20045;-57
2024/04/01 23:46:34;;;;;;;5.70;1.60;;;13.30;99.90;;;;;;10422313;28;20440;-56
2024/04/01 23:51:36;;;;;;;2.67;1.80;;;13.70;99.90;;;;;;10422267;28;20054;-55
2024/04/01 23:56:41;;;;;;;4.97;1.90;;;14.40;99.90;;;;;;10428218;28;20154;-55
